Time;durP1;ratioP1;P1;durP2;ratioP2;P2;SDS_P1;SDS_P2;PMS_P1;PMS_P2;Temp;Humidity;BMP_temperature;BMP_pressure;BME280_temperature;BME280_humidity;BME280_pressure;Samples;Min_cycle;Max_cycle;Signal;HPM_P1;HPM_P2
2023/04/10 00:01:15;;;;;;;52.60;31.50;;;7.20;99.90;;;;;;5096398;28;20118;-76
2023/04/10 00:03:41;;;;;;;54.00;32.33;;;7.20;99.90;;;;;;5096231;28;20059;-77
2023/04/10 00:06:07;;;;;;;56.33;31.30;;;7.30;99.90;;;;;;5096254;28;20048;-77
2023/04/10 00:08:32;;;;;;;58.03;33.75;;;7.30;99.90;;;;;;5096528;28;20486;-77
2023/04/10 00:10:58;;;;;;;54.80;32.47;;;7.30;99.90;;;;;;5096187;28;20078;-77
2023/04/10 00:13:24;;;;;;;57.13;32.35;;;7.30;99.90;;;;;;5096213;28;20052;-76
2023/04/10 00:15:49;;;;;;;51.92;31.65;;;7.40;99.90;;;;;;5096081;28;20502;-77
2023/04/10 00:18:15;;;;;;;53.15;33.88;;;7.30;99.90;;;;;;5095903;28;20043;-77
2023/04/10 00:20:41;;;;;;;61.38;34.92;;;7.30;99.90;;;;;;5096021;28;20048;-77
2023/04/10 00:23:07;;;;;;;58.67;33.50;;;7.20;99.90;;;;;;5095930;28;20046;-77
2023/04/10 00:25:32;;;;;;;57.60;33.60;;;7.20;99.90;;;;;;5095842;28;20421;-76
2023/04/10 00:27:58;;;;;;;58.63;34.63;;;7.20;99.90;;;;;;5095712;28;20035;-76
2023/04/10 00:30:24;;;;;;;55.28;33.08;;;7.20;99.90;;;;;;5095826;28;20048;-77
2023/04/10 00:32:49;;;;;;;59.88;33.55;;;7.70;99.90;;;;;;5095898;28;20462;-76
2023/04/10 00:35:15;;;;;;;59.85;33.33;;;7.20;99.90;;;;;;5095703;28;20131;-77
2023/04/10 00:37:41;;;;;;;58.63;34.10;;;7.20;99.90;;;;;;5095783;28;20086;-77
2023/04/10 00:40:07;;;;;;;66.95;37.92;;;7.10;99.90;;;;;;5095454;28;20053;-77
2023/04/10 00:42:33;;;;;;;63.80;36.13;;;7.10;99.90;;;;;;5094676;28;20085;-77
2023/04/10 00:44:59;;;;;;;63.17;35.38;;;7.10;99.90;;;;;;5095553;28;20048;-76
2023/04/10 00:47:26;;;;;;;61.85;35.33;;;7.10;99.90;;;;;;5094168;28;20048;-77
2023/04/10 00:49:52;;;;;;;61.88;36.78;;;7.30;99.90;;;;;;5095470;28;20058;-77
2023/04/10 00:52:19;;;;;;;57.95;35.40;;;7.10;99.90;;;;;;5095367;28;20047;-77
2023/04/10 00:54:45;;;;;;;67.55;36.28;;;7.00;99.90;;;;;;5095252;28;20059;-76
2023/04/10 00:57:11;;;;;;;64.38;36.60;;;7.00;99.90;;;;;;5095769;28;20036;-77
2023/04/10 00:59:37;;;;;;;60.55;36.53;;;7.00;99.90;;;;;;5095254;28;20044;-77
2023/04/10 01:02:03;;;;;;;69.25;38.25;;;7.00;99.90;;;;;;5095243;28;20043;-77
2023/04/10 01:04:30;;;;;;;62.43;36.80;;;7.00;99.90;;;;;;5095154;28;20548;-77
2023/04/10 01:06:58;;;;;;;68.50;40.08;;;7.00;99.90;;;;;;5095046;28;20035;-75
2023/04/10 01:10:02;;;;;;;65.30;38.35;;;7.00;99.90;;;;;;5095556;28;20109;-75
2023/04/10 01:12:36;;;;;;;68.65;38.95;;;6.90;99.90;;;;;;5095028;28;20083;-75
2023/04/10 01:15:19;;;;;;;67.10;40.30;;;6.90;99.90;;;;;;5094891;28;20055;-76
2023/04/10 01:18:08;;;;;;;67.40;39.35;;;6.90;99.90;;;;;;5094969;28;20047;-75
2023/04/10 01:20:38;;;;;;;70.93;40.22;;;6.80;99.90;;;;;;5093837;28;20097;-75
2023/04/10 01:23:22;;;;;;;73.40;40.55;;;7.20;99.90;;;;;;5094771;28;20047;-75
2023/04/10 01:25:48;;;;;;;76.72;41.25;;;6.80;99.90;;;;;;5094793;28;20075;-76
2023/04/10 01:28:36;;;;;;;73.05;39.90;;;6.80;99.90;;;;;;5094127;28;20044;-76
2023/04/10 01:31:02;;;;;;;79.30;41.45;;;6.70;99.90;;;;;;5094449;28;20492;-75
2023/04/10 01:33:37;;;;;;;74.20;39.70;;;6.70;99.90;;;;;;5094658;28;20087;-75
2023/04/10 01:36:06;;;;;;;80.70;43.35;;;6.70;99.90;;;;;;5094538;28;20052;-76
2023/04/10 01:38:34;;;;;;;77.53;42.05;;;6.70;99.90;;;;;;5094331;28;20040;-76
2023/04/10 01:41:01;;;;;;;76.07;41.35;;;6.70;99.90;;;;;;5094481;28;20044;-76
2023/04/10 01:43:30;;;;;;;72.43;38.10;;;6.70;99.90;;;;;;5094418;28;20094;-75
2023/04/10 01:45:57;;;;;;;74.28;39.88;;;6.60;99.90;;;;;;5094406;28;20035;-75
2023/04/10 01:48:23;;;;;;;72.82;38.03;;;6.60;99.90;;;;;;5094358;28;20126;-75
2023/04/10 01:50:50;;;;;;;68.63;38.67;;;6.60;99.90;;;;;;5094562;28;20060;-76
2023/04/10 01:53:17;;;;;;;68.10;37.92;;;6.60;99.90;;;;;;5094106;28;20774;-75
2023/04/10 01:55:42;;;;;;;69.45;38.70;;;7.10;99.90;;;;;;5094086;28;20094;-75
2023/04/10 01:58:09;;;;;;;68.10;37.60;;;6.50;99.90;;;;;;5094192;28;20068;-76
2023/04/10 02:00:40;;;;;;;66.78;36.67;;;7.30;99.90;;;;;;5093247;28;20059;-75
2023/04/10 02:03:06;;;;;;;71.40;38.60;;;6.50;99.90;;;;;;5094122;28;20097;-76
2023/04/10 02:05:53;;;;;;;68.50;37.40;;;6.90;99.90;;;;;;5093889;28;20387;-76
2023/04/10 02:08:42;;;;;;;68.63;37.00;;;6.50;99.90;;;;;;5094039;28;20525;-76
2023/04/10 02:11:29;;;;;;;67.20;37.42;;;6.50;99.90;;;;;;5094110;28;20093;-75
2023/04/10 02:13:59;;;;;;;72.17;38.07;;;6.50;99.90;;;;;;5094101;28;20042;-76
2023/04/10 02:16:28;;;;;;;69.65;38.38;;;6.50;99.90;;;;;;5093987;28;20051;-76
2023/04/10 02:18:55;;;;;;;77.10;39.58;;;6.50;99.90;;;;;;5093856;28;20043;-76
2023/04/10 02:21:20;;;;;;;78.00;40.22;;;6.50;99.90;;;;;;5094434;28;20495;-76
2023/04/10 02:23:46;;;;;;;78.35;40.55;;;6.50;99.90;;;;;;5094111;28;20044;-75
2023/04/10 02:26:12;;;;;;;89.18;41.65;;;6.50;99.90;;;;;;5093740;28;20480;-76
2023/04/10 02:28:38;;;;;;;76.57;38.88;;;6.50;99.90;;;;;;5092820;28;20043;-76
2023/04/10 02:31:04;;;;;;;76.65;38.00;;;6.50;99.90;;;;;;5094040;28;20052;-76
2023/04/10 02:33:30;;;;;;;69.07;36.63;;;6.50;99.90;;;;;;5094228;28;20044;-76
2023/04/10 02:35:56;;;;;;;71.40;40.13;;;6.50;99.90;;;;;;5094020;28;20040;-76
2023/04/10 02:38:21;;;;;;;69.28;36.60;;;6.50;99.90;;;;;;5093945;28;20075;-76
2023/04/10 02:40:49;;;;;;;73.00;37.15;;;6.50;99.90;;;;;;5093656;28;20036;-75
2023/04/10 02:43:14;;;;;;;67.45;36.72;;;6.40;99.90;;;;;;5093900;28;20587;-76
2023/04/10 02:45:40;;;;;;;71.95;36.47;;;6.40;99.90;;;;;;5092597;28;20127;-76
2023/04/10 02:48:06;;;;;;;67.70;37.53;;;6.40;99.90;;;;;;5093955;28;20036;-76
2023/04/10 02:50:32;;;;;;;72.00;39.47;;;6.40;99.90;;;;;;5093677;28;20106;-76
2023/04/10 02:52:57;;;;;;;69.88;36.78;;;6.40;99.90;;;;;;5093607;28;20044;-75
2023/04/10 02:55:23;;;;;;;79.20;41.72;;;6.40;99.90;;;;;;5093570;28;20135;-75
2023/04/10 02:57:48;;;;;;;88.00;44.42;;;6.40;99.90;;;;;;5093575;28;20480;-75
2023/04/10 03:00:15;;;;;;;87.18;45.30;;;6.40;99.90;;;;;;5093951;28;20090;-76
2023/04/10 03:02:40;;;;;;;83.63;46.13;;;6.40;99.90;;;;;;5093510;28;20098;-76
2023/04/10 03:05:07;;;;;;;86.43;43.60;;;6.40;99.90;;;;;;5093521;28;20048;-76
2023/04/10 03:07:33;;;;;;;;;;;6.40;99.90;;;;;;5097263;28;20047;-76
2023/04/10 03:09:58;;;;;;;93.78;47.90;;;6.40;99.90;;;;;;5097149;28;19920;-76
2023/04/10 03:12:24;;;;;;;96.38;48.47;;;6.30;99.90;;;;;;5097373;28;20048;-76
2023/04/10 03:14:50;;;;;;;102.03;49.45;;;6.30;99.90;;;;;;5097268;28;20052;-76
2023/04/10 03:17:15;;;;;;;94.60;50.17;;;6.30;99.90;;;;;;5097208;28;20476;-76
2023/04/10 03:19:41;;;;;;;93.97;48.90;;;6.30;99.90;;;;;;5097243;28;20076;-76
2023/04/10 03:22:06;;;;;;;102.22;50.22;;;6.30;99.90;;;;;;5097095;28;20097;-75
2023/04/10 03:24:32;;;;;;;100.63;49.28;;;6.30;99.90;;;;;;5096886;28;20051;-75
2023/04/10 03:26:58;;;;;;;112.95;52.78;;;6.20;99.90;;;;;;5096933;28;20036;-75
2023/04/10 03:29:23;;;;;;;103.20;49.65;;;6.20;99.90;;;;;;5096889;28;20197;-76
2023/04/10 03:31:49;;;;;;;98.25;51.97;;;6.20;99.90;;;;;;5096916;28;20058;-76
2023/04/10 03:34:15;;;;;;;105.63;54.70;;;6.20;99.90;;;;;;5096952;28;20048;-75
2023/04/10 03:36:41;;;;;;;109.82;54.53;;;6.60;99.90;;;;;;5096915;28;20040;-76
2023/04/10 03:39:06;;;;;;;120.82;56.13;;;6.30;99.90;;;;;;5096767;28;20083;-76
2023/04/10 03:41:32;;;;;;;119.78;59.33;;;6.20;99.90;;;;;;5096786;28;20089;-76
2023/04/10 03:43:58;;;;;;;127.07;57.17;;;6.20;99.90;;;;;;5096613;28;20400;-76
2023/04/10 03:46:23;;;;;;;122.32;57.97;;;6.30;99.90;;;;;;5096589;28;20123;-76
2023/04/10 03:48:51;;;;;;;114.50;56.00;;;6.20;99.90;;;;;;5096918;28;20044;-76
2023/04/10 03:51:17;;;;;;;122.85;57.83;;;6.20;99.90;;;;;;5095459;28;20135;-76
2023/04/10 03:53:42;;;;;;;119.25;58.50;;;6.70;99.90;;;;;;5096512;28;20060;-76
2023/04/10 03:56:08;;;;;;;118.00;57.60;;;6.20;99.90;;;;;;5096455;28;20043;-76
2023/04/10 03:58:34;;;;;;;118.60;57.88;;;6.40;99.90;;;;;;5096423;28;20092;-77
2023/04/10 04:00:59;;;;;;;113.45;56.63;;;6.20;99.90;;;;;;5096613;28;20044;-76
2023/04/10 04:03:25;;;;;;;117.93;58.20;;;6.10;99.90;;;;;;5096715;28;20511;-76
2023/04/10 04:05:51;;;;;;;120.13;57.67;;;6.30;99.90;;;;;;5096579;28;20051;-76
2023/04/10 04:08:16;;;;;;;119.75;58.45;;;6.00;99.90;;;;;;5096253;28;20044;-76
2023/04/10 04:10:42;;;;;;;122.55;61.88;;;6.00;99.90;;;;;;5096225;28;20396;-76
2023/04/10 04:13:08;;;;;;;133.23;64.38;;;6.00;99.90;;;;;;5096120;28;20472;-77
2023/04/10 04:15:33;;;;;;;124.10;61.08;;;5.90;99.90;;;;;;5095013;28;20079;-76
2023/04/10 04:17:59;;;;;;;135.95;68.25;;;5.90;99.90;;;;;;5093495;28;20040;-76
2023/04/10 04:20:25;;;;;;;141.20;67.20;;;5.90;99.90;;;;;;5096138;28;20101;-76
2023/04/10 04:22:50;;;;;;;142.77;69.18;;;5.90;99.90;;;;;;5096000;28;20066;-76
2023/04/10 04:25:18;;;;;;;125.32;61.92;;;5.80;99.90;;;;;;5095922;28;20032;-76
2023/04/10 04:27:44;;;;;;;128.70;56.97;;;5.80;99.90;;;;;;5095789;28;20051;-76
2023/04/10 04:30:10;;;;;;;122.22;55.42;;;5.80;99.90;;;;;;5095798;28;20093;-77
2023/04/10 04:32:36;;;;;;;100.22;49.10;;;5.70;99.90;;;;;;5095791;28;20040;-76
2023/04/10 04:35:01;;;;;;;84.97;45.47;;;5.70;99.90;;;;;;5095785;28;20040;-76
2023/04/10 04:37:27;;;;;;;96.88;48.15;;;5.70;99.90;;;;;;5095902;28;20032;-75
2023/04/10 04:39:53;;;;;;;85.82;45.58;;;5.70;99.90;;;;;;5095368;28;20127;-77
2023/04/10 04:42:18;;;;;;;91.93;47.72;;;5.70;99.90;;;;;;5095182;28;20055;-77
2023/04/10 04:44:44;;;;;;;86.78;46.40;;;5.60;99.90;;;;;;5095224;28;20059;-77
2023/04/10 04:47:10;;;;;;;82.97;45.50;;;5.60;99.90;;;;;;5095248;28;20092;-76
2023/04/10 04:49:36;;;;;;;88.75;47.70;;;5.60;99.90;;;;;;5094974;28;20060;-78
2023/04/10 04:52:01;;;;;;;91.10;47.05;;;5.60;99.90;;;;;;5095087;28;20140;-79
2023/04/10 04:54:27;;;;;;;94.10;48.00;;;5.60;99.90;;;;;;5095519;28;20050;-78
2023/04/10 04:56:52;;;;;;;87.15;46.88;;;5.60;99.90;;;;;;5095407;28;20063;-75
2023/04/10 04:59:18;;;;;;;101.00;50.70;;;5.60;99.90;;;;;;5095261;28;20361;-78
2023/04/10 05:01:44;;;;;;;124.13;57.03;;;5.60;99.90;;;;;;5095271;28;20126;-81
2023/04/10 05:04:10;;;;;;;122.75;56.83;;;5.50;99.90;;;;;;5094293;28;20059;-77
2023/04/10 05:06:36;;;;;;;148.10;62.95;;;5.50;99.90;;;;;;5095185;28;20044;-77
2023/04/10 05:09:01;;;;;;;156.82;69.78;;;5.50;99.90;;;;;;5095006;28;20040;-77
2023/04/10 05:11:27;;;;;;;146.75;67.78;;;6.10;99.90;;;;;;5094993;28;20044;-77
2023/04/10 05:13:52;;;;;;;148.57;65.95;;;5.60;99.90;;;;;;5094820;28;20040;-78
2023/04/10 05:16:18;;;;;;;138.63;62.88;;;5.60;99.90;;;;;;5094980;28;20088;-78
2023/04/10 05:18:45;;;;;;;129.93;61.42;;;5.70;99.90;;;;;;5093880;28;20039;-78
2023/04/10 05:21:10;;;;;;;124.93;60.75;;;5.60;99.90;;;;;;5094925;28;20456;-78
2023/04/10 05:23:36;;;;;;;130.77;59.40;;;5.60;99.90;;;;;;5094804;28;20127;-77
2023/04/10 05:26:02;;;;;;;147.88;64.65;;;5.60;99.90;;;;;;5093559;28;20472;-77
2023/04/10 05:28:27;;;;;;;145.48;67.50;;;5.60;99.90;;;;;;5094197;28;20048;-76
2023/04/10 05:30:53;;;;;;;154.93;69.40;;;5.70;99.90;;;;;;5094651;28;20468;-77
2023/04/10 05:33:19;;;;;;;167.50;72.40;;;5.70;99.90;;;;;;5094557;28;20490;-77
2023/04/10 05:35:45;;;;;;;165.75;72.63;;;5.70;99.90;;;;;;5094361;28;20044;-77
2023/04/10 05:38:11;;;;;;;162.98;69.30;;;5.80;99.90;;;;;;5094417;28;20040;-77
2023/04/10 05:40:36;;;;;;;172.07;73.00;;;5.80;99.90;;;;;;5094480;28;20043;-77
2023/04/10 05:43:02;;;;;;;179.38;69.32;;;5.90;99.90;;;;;;5094407;28;20426;-77
2023/04/10 05:45:28;;;;;;;176.23;69.93;;;5.90;99.90;;;;;;5093351;28;20130;-78
2023/04/10 05:47:54;;;;;;;136.18;61.40;;;6.00;99.90;;;;;;5094759;28;20142;-78
2023/04/10 05:50:20;;;;;;;127.85;57.90;;;6.00;99.90;;;;;;5093741;28;20127;-78
2023/04/10 05:52:45;;;;;;;128.85;57.70;;;6.10;99.90;;;;;;5093347;28;20044;-77
2023/04/10 05:55:11;;;;;;;114.30;53.28;;;6.20;99.90;;;;;;5093482;28;20079;-77
2023/04/10 05:57:38;;;;;;;115.25;51.38;;;6.30;99.90;;;;;;5091895;28;20044;-78
2023/04/10 06:00:04;;;;;;;106.25;50.88;;;7.00;99.90;;;;;;5092719;28;20052;-78
2023/04/10 06:02:31;;;;;;;108.50;50.33;;;6.40;99.90;;;;;;5093363;28;20044;-78
2023/04/10 06:04:56;;;;;;;134.05;57.63;;;6.50;99.90;;;;;;5093172;28;20106;-78
2023/04/10 06:07:22;;;;;;;122.10;54.88;;;6.50;99.90;;;;;;5093047;28;20488;-76
2023/04/10 06:09:47;;;;;;;128.18;56.28;;;6.60;99.90;;;;;;5092781;28;20055;-77
2023/04/10 06:12:13;;;;;;;119.50;56.08;;;6.70;99.90;;;;;;5092964;28;20040;-77
2023/04/10 06:14:38;;;;;;;138.10;60.97;;;6.70;99.90;;;;;;5092472;28;20044;-76
2023/04/10 06:17:04;;;;;;;138.93;63.75;;;6.80;99.90;;;;;;5092947;28;20547;-77
2023/04/10 06:19:30;;;;;;;140.05;61.25;;;6.90;99.90;;;;;;5092917;28;20044;-76
2023/04/10 06:21:55;;;;;;;140.65;58.75;;;6.90;99.90;;;;;;5092673;28;20075;-75
2023/04/10 06:24:21;;;;;;;126.50;55.20;;;7.00;99.90;;;;;;5092652;28;20105;-76
2023/04/10 06:26:46;;;;;;;127.60;55.88;;;7.10;99.90;;;;;;5092734;28;20036;-78
2023/04/10 06:29:12;;;;;;;112.32;49.47;;;7.20;99.90;;;;;;5092406;28;20097;-82
2023/04/10 06:31:38;;;;;;;101.95;46.30;;;7.30;99.90;;;;;;5091923;28;20044;-75
2023/04/10 06:34:03;;;;;;;98.97;47.38;;;7.40;99.90;;;;;;5092702;28;20203;-75
2023/04/10 06:36:29;;;;;;;101.78;46.85;;;8.10;99.90;;;;;;5092712;28;20044;-76
2023/04/10 06:38:54;;;;;;;91.68;43.00;;;7.70;99.90;;;;;;5092590;28;20036;-76
2023/04/10 06:41:20;;;;;;;81.47;38.85;;;7.90;99.90;;;;;;5093769;28;20044;-76
2023/04/10 06:43:45;;;;;;;71.63;36.97;;;8.10;99.90;;;;;;5096167;28;20105;-76
2023/04/10 06:46:11;;;;;;;62.97;32.95;;;8.20;99.90;;;;;;5096196;28;20387;-77
2023/04/10 06:48:37;;;;;;;55.85;30.95;;;9.00;99.90;;;;;;5096189;28;20040;-76
2023/04/10 06:51:03;;;;;;;54.57;29.47;;;8.50;99.90;;;;;;5058711;28;1090874;-75
2023/04/10 06:53:29;;;;;;;53.85;28.35;;;8.60;99.90;;;;;;5097379;28;20051;-76
2023/04/10 06:55:55;;;;;;;53.47;30.17;;;8.70;99.90;;;;;;5097408;28;20083;-75
2023/04/10 06:58:21;;;;;;;50.08;28.85;;;8.90;99.90;;;;;;5097110;28;20039;-76
2023/04/10 07:00:47;;;;;;;50.78;27.88;;;8.90;99.90;;;;;;5097289;28;20176;-75
2023/04/10 07:03:12;;;;;;;47.40;26.45;;;9.10;99.90;;;;;;5097469;28;20047;-76
2023/04/10 07:05:38;;;;;;;49.75;27.73;;;9.20;99.90;;;;;;5097400;28;20047;-76
2023/04/10 07:08:03;;;;;;;46.10;26.25;;;9.10;99.90;;;;;;5097180;28;20438;-75
2023/04/10 07:10:29;;;;;;;45.58;26.15;;;9.20;99.90;;;;;;5097245;28;20047;-76
2023/04/10 07:12:56;;;;;;;47.17;26.48;;;9.60;99.90;;;;;;5096675;28;20078;-75
2023/04/10 07:15:21;;;;;;;48.72;25.90;;;9.40;99.90;;;;;;5097140;28;20119;-76
2023/04/10 07:17:47;;;;;;;50.28;26.13;;;9.40;99.90;;;;;;5096975;28;20123;-75
2023/04/10 07:20:13;;;;;;;44.42;23.85;;;9.50;99.90;;;;;;5097306;28;20044;-75
2023/04/10 07:22:39;;;;;;;42.65;23.77;;;9.50;99.90;;;;;;5097102;28;20036;-79
2023/04/10 07:25:06;;;;;;;42.72;24.35;;;9.60;99.90;;;;;;5097103;28;20092;-79
2023/04/10 07:27:31;;;;;;;43.42;24.90;;;9.50;99.90;;;;;;5097059;28;20043;-77
2023/04/10 07:29:57;;;;;;;38.50;21.92;;;9.60;99.90;;;;;;5096648;28;20404;-77
2023/04/10 07:32:23;;;;;;;42.03;21.63;;;10.20;99.90;;;;;;5096887;28;20420;-77
2023/04/10 07:34:48;;;;;;;38.38;21.95;;;9.80;99.90;;;;;;5096633;28;20502;-77
2023/04/10 07:37:14;;;;;;;39.53;21.42;;;10.00;99.90;;;;;;5096750;28;20047;-77
2023/04/10 07:39:40;;;;;;;35.20;21.30;;;10.10;99.90;;;;;;5096697;28;20047;-79
2023/04/10 07:42:05;;;;;;;37.40;21.15;;;10.30;99.90;;;;;;5095604;28;20131;-84
2023/04/10 07:44:31;;;;;;;38.97;22.08;;;10.40;99.90;;;;;;5095543;28;20048;-80
2023/04/10 07:46:57;;;;;;;35.42;20.30;;;11.00;99.90;;;;;;5095517;28;20044;-77
2023/04/10 07:49:23;;;;;;;34.97;19.90;;;10.60;99.90;;;;;;5096325;28;20059;-77
2023/04/10 07:51:49;;;;;;;33.55;20.38;;;10.70;99.90;;;;;;5095845;28;20286;-76
2023/04/10 07:54:15;;;;;;;35.55;20.08;;;10.80;99.90;;;;;;5096189;28;20077;-78
2023/04/10 07:56:40;;;;;;;31.85;19.50;;;10.90;99.90;;;;;;5096272;28;20046;-77
2023/04/10 07:59:06;;;;;;;35.38;19.85;;;11.00;99.90;;;;;;5096385;28;20044;-81
2023/04/10 08:01:32;;;;;;;32.13;16.48;;;11.20;99.90;;;;;;5096507;28;20395;-76
2023/04/10 08:03:57;;;;;;;32.40;19.13;;;11.20;99.90;;;;;;5096309;28;20047;-77
2023/04/10 08:06:23;;;;;;;33.60;18.95;;;11.30;99.90;;;;;;5096218;28;20360;-77
2023/04/10 08:08:50;;;;;;;33.80;18.83;;;11.40;99.90;;;;;;5096129;28;20126;-77
2023/04/10 08:11:30;;;;;;;31.85;17.98;;;11.50;99.90;;;;;;5095613;28;20055;-77
2023/04/10 08:13:58;;;;;;;34.53;19.00;;;11.70;99.90;;;;;;5095896;28;20039;-81
2023/04/10 08:16:28;;;;;;;30.95;18.95;;;11.90;99.90;;;;;;5095885;28;20533;-77
2023/04/10 08:18:56;;;;;;;34.03;19.48;;;12.10;99.90;;;;;;5095969;28;20039;-77
2023/04/10 08:21:23;;;;;;;30.60;18.80;;;12.30;99.90;;;;;;5095691;28;20047;-77
2023/04/10 08:23:57;;;;;;;31.33;18.02;;;12.20;99.90;;;;;;5094879;28;20040;-77
2023/04/10 08:26:23;;;;;;;28.92;18.05;;;12.40;99.90;;;;;;5094278;28;20080;-77
2023/04/10 08:28:50;;;;;;;29.77;17.58;;;12.70;99.90;;;;;;5095768;28;20438;-77
2023/04/10 08:31:17;;;;;;;29.00;18.20;;;12.40;99.90;;;;;;5095584;28;20040;-77
2023/04/10 08:33:43;;;;;;;30.27;17.73;;;12.50;99.90;;;;;;5095679;28;20047;-77
2023/04/10 08:36:09;;;;;;;23.83;15.25;;;12.60;99.90;;;;;;5095329;28;20048;-77
2023/04/10 08:38:34;;;;;;;30.20;18.07;;;12.70;99.90;;;;;;5094145;28;20051;-77
2023/04/10 08:41:00;;;;;;;28.33;17.10;;;12.80;99.90;;;;;;5095240;28;20055;-77
2023/04/10 08:43:26;;;;;;;30.67;17.50;;;12.80;99.90;;;;;;5095212;28;20048;-77
2023/04/10 08:45:52;;;;;;;28.95;16.95;;;12.90;99.90;;;;;;5095545;28;20036;-77
2023/04/10 08:48:20;;;;;;;26.17;15.52;;;13.00;99.90;;;;;;5095341;28;20097;-77
2023/04/10 08:50:48;;;;;;;28.13;18.05;;;13.00;99.90;;;;;;5094856;28;20088;-77
2023/04/10 08:53:15;;;;;;;28.02;16.60;;;13.00;99.90;;;;;;5094846;28;20619;-77
2023/04/10 08:55:42;;;;;;;28.55;17.00;;;12.90;99.90;;;;;;5095031;28;20048;-77
2023/04/10 08:58:09;;;;;;;26.83;16.40;;;13.00;99.90;;;;;;5095125;28;20075;-78
2023/04/10 09:00:37;;;;;;;26.42;16.80;;;13.20;99.90;;;;;;5094964;28;20044;-78
2023/04/10 09:03:07;;;;;;;25.23;16.58;;;13.10;99.90;;;;;;5093701;28;20055;-77
2023/04/10 09:05:34;;;;;;;24.63;15.55;;;13.30;99.90;;;;;;5094635;28;20044;-78
2023/04/10 09:08:00;;;;;;;21.90;13.90;;;13.60;99.90;;;;;;5094584;28;20121;-77
2023/04/10 09:10:25;;;;;;;25.10;16.43;;;13.30;99.90;;;;;;5094963;28;20102;-77
2023/04/10 09:12:51;;;;;;;24.60;14.68;;;13.30;99.90;;;;;;5094205;28;20036;-77
2023/04/10 09:15:17;;;;;;;22.83;14.05;;;13.60;99.90;;;;;;5094844;28;20147;-77
2023/04/10 09:18:02;;;;;;;22.40;14.00;;;13.50;99.90;;;;;;5093467;28;20047;-78
2023/04/10 09:20:30;;;;;;;26.67;14.30;;;13.60;99.90;;;;;;5093899;28;20149;-77
2023/04/10 09:22:56;;;;;;;22.52;13.70;;;13.70;99.90;;;;;;5094451;28;20395;-78
2023/04/10 09:25:37;;;;;;;20.70;12.85;;;13.80;99.90;;;;;;5094626;28;20044;-77
2023/04/10 09:28:07;;;;;;;20.98;13.68;;;13.90;99.90;;;;;;5094748;28;20036;-77
2023/04/10 09:30:41;;;;;;;20.65;13.32;;;14.10;99.90;;;;;;5094482;28;20059;-78
2023/04/10 09:33:23;;;;;;;20.92;12.95;;;14.20;99.90;;;;;;5094559;28;20083;-78
2023/04/10 09:35:48;;;;;;;22.23;12.00;;;14.30;99.90;;;;;;5094850;28;20433;-77
2023/04/10 09:38:20;;;;;;;21.10;12.20;;;14.40;99.90;;;;;;5093340;28;20052;-77
2023/04/10 09:40:47;;;;;;;21.58;12.88;;;14.40;99.90;;;;;;5094396;28;20147;-78
2023/04/10 09:43:26;;;;;;;20.20;12.73;;;14.50;99.90;;;;;;5094081;28;20369;-77
2023/04/10 09:45:53;;;;;;;15.93;10.63;;;14.60;99.90;;;;;;5093968;28;20048;-77
2023/04/10 09:48:20;;;;;;;15.25;10.05;;;14.70;99.90;;;;;;5094205;28;20040;-77
2023/04/10 09:50:46;;;;;;;15.48;8.90;;;15.00;99.90;;;;;;5094536;28;20048;-77
2023/04/10 09:53:18;;;;;;;15.60;8.10;;;15.00;99.90;;;;;;5094093;28;20052;-77
2023/04/10 09:55:45;;;;;;;13.32;8.55;;;15.10;99.90;;;;;;5094268;28;20464;-77
2023/04/10 09:58:12;;;;;;;16.38;8.05;;;15.00;99.90;;;;;;5093621;28;20044;-77
2023/04/10 10:00:48;;;;;;;12.88;8.68;;;15.30;99.90;;;;;;5094008;28;20051;-78
2023/04/10 10:03:19;;;;;;;12.40;8.02;;;15.10;99.90;;;;;;5093856;28;20442;-77
2023/04/10 10:05:48;;;;;;;11.43;7.15;;;15.10;99.90;;;;;;5093980;28;20368;-77
2023/04/10 10:08:15;;;;;;;13.27;7.93;;;15.10;99.90;;;;;;5093607;28;20089;-77
2023/04/10 10:10:45;;;;;;;;;;;15.20;99.90;;;;;;5093856;28;20052;-77
2023/04/10 10:13:18;;;;;;;11.73;7.32;;;15.20;99.90;;;;;;5093495;28;19926;-77
2023/04/10 10:16:06;;;;;;;12.50;7.78;;;15.40;99.90;;;;;;5093613;28;20120;-77
2023/04/10 10:18:34;;;;;;;11.82;7.97;;;15.40;99.90;;;;;;5093121;28;20511;-77
2023/04/10 10:21:00;;;;;;;11.05;7.55;;;15.50;99.90;;;;;;5093376;28;20083;-77
2023/04/10 10:23:27;;;;;;;9.85;7.10;;;15.50;99.90;;;;;;5093711;28;20052;-77
2023/04/10 10:25:53;;;;;;;11.98;8.15;;;15.70;99.90;;;;;;5093710;28;20040;-78
2023/04/10 10:28:20;;;;;;;11.18;7.28;;;15.60;99.90;;;;;;5093933;28;20052;-78
2023/04/10 10:30:48;;;;;;;9.75;7.13;;;15.70;99.90;;;;;;5093661;28;20051;-77
2023/04/10 10:33:14;;;;;;;9.73;6.60;;;15.90;99.90;;;;;;5093636;28;20048;-78
2023/04/10 10:35:41;;;;;;;8.97;6.70;;;16.10;99.90;;;;;;5093449;28;20051;-77
2023/04/10 10:38:06;;;;;;;11.23;6.95;;;16.00;99.90;;;;;;5093514;28;20058;-77
2023/04/10 10:40:50;;;;;;;10.73;7.17;;;16.00;99.90;;;;;;5093453;28;20040;-77
2023/04/10 10:43:41;;;;;;;8.82;6.43;;;16.00;99.90;;;;;;5093584;28;20048;-77
2023/04/10 10:46:11;;;;;;;9.60;6.13;;;16.10;99.90;;;;;;5092208;28;20400;-77
2023/04/10 10:48:37;;;;;;;9.15;6.50;;;16.10;99.90;;;;;;5093610;28;20055;-77
2023/04/10 10:51:03;;;;;;;8.50;6.07;;;16.20;99.90;;;;;;5093254;28;20060;-77
2023/04/10 10:53:41;;;;;;;8.83;5.27;;;16.10;99.90;;;;;;5093418;28;20123;-77
2023/04/10 10:56:22;;;;;;;8.73;5.95;;;16.20;99.90;;;;;;5093384;28;20427;-77
2023/04/10 10:58:48;;;;;;;8.80;5.45;;;16.10;99.90;;;;;;5093133;28;20096;-77
2023/04/10 11:01:14;;;;;;;9.00;5.35;;;16.20;99.90;;;;;;5093314;28;20044;-77
2023/04/10 11:03:43;;;;;;;8.15;5.55;;;16.30;99.90;;;;;;5093570;28;20036;-78
2023/04/10 11:06:11;;;;;;;7.72;5.25;;;16.30;99.90;;;;;;5093079;28;20085;-77
2023/04/10 11:08:47;;;;;;;7.45;4.78;;;16.30;99.80;;;;;;5093067;28;20040;-77
2023/04/10 11:11:23;;;;;;;9.52;5.10;;;16.30;99.90;;;;;;5093177;28;20483;-77
2023/04/10 11:13:52;;;;;;;6.70;4.85;;;16.30;99.90;;;;;;5093151;28;20075;-77
2023/04/10 11:16:21;;;;;;;5.68;4.30;;;16.30;99.90;;;;;;5093078;28;20051;-77
2023/04/10 11:18:50;;;;;;;5.95;4.35;;;16.40;99.90;;;;;;5092909;28;20048;-78
2023/04/10 11:21:20;;;;;;;8.40;4.85;;;16.40;99.90;;;;;;5093185;28;20051;-78
2023/04/10 11:23:49;;;;;;;6.18;4.60;;;16.60;99.90;;;;;;5092982;28;20055;-78
2023/04/10 11:26:39;;;;;;;7.85;4.80;;;16.50;99.90;;;;;;5093046;28;20137;-77
2023/04/10 11:29:16;;;;;;;6.28;4.40;;;16.50;99.90;;;;;;5097024;28;20056;-77
2023/04/10 11:31:53;;;;;;;6.28;3.80;;;16.60;99.90;;;;;;5097113;28;20050;-77
2023/04/10 11:34:19;;;;;;;;;;;16.70;99.70;;;;;;5097018;28;20044;-78
2023/04/10 11:36:46;;;;;;;5.47;3.83;;;16.70;98.70;;;;;;5096744;28;20277;-78
2023/04/10 11:39:14;;;;;;;4.70;3.70;;;16.60;99.50;;;;;;5095795;28;20044;-77
2023/04/10 11:41:49;;;;;;;7.63;4.00;;;16.60;99.20;;;;;;5096751;28;20056;-77
2023/04/10 11:44:30;;;;;;;6.18;3.22;;;16.60;99.40;;;;;;5096755;28;20372;-77
2023/04/10 11:46:56;;;;;;;6.05;3.35;;;16.60;98.80;;;;;;5096511;28;20097;-78
2023/04/10 11:49:25;;;;;;;6.15;3.50;;;16.60;98.50;;;;;;5096359;28;20130;-78
2023/04/10 11:51:51;;;;;;;8.60;3.30;;;16.60;98.80;;;;;;5096563;28;20426;-77
2023/04/10 11:54:25;;;;;;;4.15;2.70;;;16.60;98.70;;;;;;5096448;28;20131;-78
2023/04/10 11:57:02;;;;;;;6.47;3.10;;;16.70;98.60;;;;;;5096510;28;20079;-77
2023/04/10 11:59:29;;;;;;;6.10;3.20;;;16.50;98.40;;;;;;5096366;28;20063;-78
2023/04/10 12:02:14;;;;;;;4.18;3.03;;;16.60;97.90;;;;;;5096027;28;20495;-78
2023/04/10 12:04:41;;;;;;;5.00;3.33;;;16.50;97.60;;;;;;5096553;28;20040;-77
2023/04/10 12:07:07;;;;;;;;;;;16.50;98.30;;;;;;5096522;28;20043;-77
2023/04/10 12:09:33;;;;;;;4.88;3.45;;;16.60;98.60;;;;;;5095958;28;19920;-77
2023/04/10 12:12:01;;;;;;;4.77;3.23;;;16.60;98.80;;;;;;5095646;28;20504;-78
2023/04/10 12:14:35;;;;;;;6.13;2.90;;;16.80;98.20;;;;;;5096041;28;20048;-78
2023/04/10 12:17:02;;;;;;;6.22;3.00;;;16.90;98.80;;;;;;5095822;28;20051;-78
2023/04/10 12:19:28;;;;;;;4.18;2.80;;;17.10;98.50;;;;;;5095929;28;20050;-78
2023/04/10 12:21:55;;;;;;;5.88;3.20;;;17.30;99.20;;;;;;5095612;28;20495;-78
2023/04/10 12:24:49;;;;;;;4.60;3.15;;;17.30;98.10;;;;;;5095701;28;20048;-78
2023/04/10 12:27:19;;;;;;;5.03;3.40;;;17.50;99.00;;;;;;5095804;28;20487;-78
2023/04/10 12:29:45;;;;;;;6.82;3.30;;;17.60;98.30;;;;;;5095748;28;20047;-78
2023/04/10 12:32:11;;;;;;;7.38;3.30;;;17.60;97.90;;;;;;5095448;28;20040;-77
2023/04/10 12:34:37;;;;;;;3.37;2.60;;;17.60;98.30;;;;;;5095738;28;20383;-78
2023/04/10 12:37:03;;;;;;;5.17;3.37;;;17.80;97.70;;;;;;5095078;28;20124;-78
2023/04/10 12:39:29;;;;;;;4.33;2.80;;;17.90;98.20;;;;;;5094556;28;20056;-76